createdAt,value
2023-01-25T00:01:33.206Z,1.00
2023-01-25T00:04:00.240Z,1.10
2023-01-25T00:06:27.294Z,1.10
2023-01-25T00:08:54.257Z,1.10
2023-01-25T00:11:21.450Z,1.00
2023-01-25T00:13:48.393Z,1.00
2023-01-25T00:16:15.442Z,1.10
2023-01-25T00:18:42.449Z,1.00
2023-01-25T00:21:16.707Z,1.00
2023-01-25T00:23:43.663Z,1.00
2023-01-25T00:26:10.858Z,1.00
2023-01-25T00:28:38.006Z,1.00
2023-01-25T00:31:05.629Z,1.00
2023-01-25T00:33:51.575Z,0.90
2023-01-25T00:36:33.431Z,0.90
2023-01-25T00:39:00.461Z,1.00
2023-01-25T00:41:27.563Z,1.00
2023-01-25T00:43:54.584Z,1.00
2023-01-25T00:46:21.601Z,1.00
2023-01-25T00:48:48.590Z,0.90
2023-01-25T00:51:15.717Z,0.90
2023-01-25T00:53:42.855Z,1.00
2023-01-25T00:56:09.823Z,1.00
2023-01-25T00:58:36.803Z,0.90
2023-01-25T01:01:08.389Z,0.90
2023-01-25T01:03:35.396Z,0.90
2023-01-25T01:06:06.390Z,0.90
2023-01-25T01:08:33.578Z,0.90
2023-01-25T01:11:01.333Z,0.90
2023-01-25T01:13:28.461Z,0.90
2023-01-25T01:15:55.602Z,0.90
2023-01-25T01:18:24.161Z,0.90
2023-01-25T01:20:52.068Z,0.90
2023-01-25T01:23:21.701Z,0.90
2023-01-25T01:25:48.722Z,0.90
2023-01-25T01:28:16.367Z,0.80
2023-01-25T01:30:43.539Z,0.80
2023-01-25T01:33:10.995Z,0.80
2023-01-25T01:35:37.964Z,0.80
2023-01-25T01:38:05.047Z,0.80
2023-01-25T01:40:32.051Z,0.80
2023-01-25T01:43:02.775Z,0.80
2023-01-25T01:46:00.811Z,0.80
2023-01-25T01:48:45.682Z,0.80
2023-01-25T01:51:35.417Z,0.80
2023-01-25T01:54:06.036Z,0.80
2023-01-25T01:56:35.977Z,0.80
2023-01-25T01:59:03.627Z,0.80
2023-01-25T02:01:31.064Z,0.80
2023-01-25T02:03:58.973Z,0.80
2023-01-25T02:06:46.516Z,0.80
2023-01-25T02:09:16.737Z,0.80
2023-01-25T02:11:43.751Z,0.80
2023-01-25T02:14:10.732Z,0.80
2023-01-25T02:16:37.716Z,0.80
2023-01-25T02:19:04.738Z,0.80
2023-01-25T02:21:35.506Z,0.70
2023-01-25T02:24:11.964Z,0.80
2023-01-25T02:26:39.387Z,0.70
2023-01-25T02:29:06.957Z,0.70
2023-01-25T02:31:34.239Z,0.70
2023-01-25T02:34:01.497Z,0.70
2023-01-25T02:36:29.482Z,0.70
2023-01-25T02:39:20.075Z,0.70
2023-01-25T02:41:50.400Z,0.70
2023-01-25T02:44:18.914Z,0.70
2023-01-25T02:46:46.455Z,0.70
2023-01-25T02:49:13.949Z,0.70
2023-01-25T02:51:43.144Z,0.70
2023-01-25T02:54:10.784Z,0.70
2023-01-25T02:56:38.021Z,0.70
2023-01-25T02:59:05.659Z,0.70
2023-01-25T03:01:34.608Z,0.70
2023-01-25T03:04:02.732Z,0.70
2023-01-25T03:06:29.728Z,0.70
2023-01-25T03:08:56.728Z,0.70
2023-01-25T03:11:23.979Z,0.70
2023-01-25T03:13:52.258Z,0.70
2023-01-25T03:16:20.217Z,0.70
2023-01-25T03:18:47.256Z,0.70
2023-01-25T03:21:16.583Z,0.70
2023-01-25T03:23:44.011Z,0.70
2023-01-25T03:26:17.399Z,0.70
2023-01-25T03:29:03.250Z,0.70
2023-01-25T03:31:30.373Z,0.70
2023-01-25T03:33:57.557Z,0.70
2023-01-25T03:36:28.977Z,0.60
2023-01-25T03:38:56.045Z,0.70
2023-01-25T03:41:23.059Z,0.60
2023-01-25T03:43:50.056Z,0.60
2023-01-25T03:46:18.170Z,0.70
2023-01-25T03:48:45.313Z,0.70
2023-01-25T03:51:12.300Z,0.70
2023-01-25T03:53:39.985Z,0.70
2023-01-25T03:56:11.724Z,0.70
2023-01-25T03:58:43.240Z,0.70
2023-01-25T04:01:10.303Z,0.70
2023-01-25T04:03:37.632Z,0.70
2023-01-25T04:06:06.023Z,0.70
2023-01-25T04:08:34.246Z,0.70
2023-01-25T04:11:05.130Z,0.70
2023-01-25T04:13:35.016Z,0.60
2023-01-25T04:16:02.715Z,0.60
2023-01-25T04:19:01.941Z,0.70
2023-01-25T04:21:30.779Z,0.60
2023-01-25T04:23:58.018Z,0.60
2023-01-25T04:26:25.259Z,0.60
2023-01-25T04:28:58.952Z,0.60
2023-01-25T04:31:26.074Z,0.60
2023-01-25T04:33:53.140Z,0.60
2023-01-25T04:36:21.119Z,0.60
2023-01-25T04:38:48.487Z,0.60
2023-01-25T04:41:15.618Z,0.50
2023-01-25T04:43:44.336Z,0.60
2023-01-25T04:46:11.596Z,0.60
2023-01-25T04:48:39.389Z,0.60
2023-01-25T04:51:09.344Z,0.50
2023-01-25T04:53:36.313Z,0.60
2023-01-25T04:56:06.112Z,0.50
2023-01-25T04:58:40.851Z,0.50
2023-01-25T05:01:07.968Z,0.60
2023-01-25T05:03:35.085Z,0.50
2023-01-25T05:06:03.292Z,0.60
2023-01-25T05:08:30.447Z,0.50
2023-01-25T05:11:01.518Z,0.50
2023-01-25T05:13:36.831Z,0.60
2023-01-25T05:16:21.303Z,0.50
2023-01-25T05:18:49.463Z,0.60
2023-01-25T05:21:39.733Z,0.50
2023-01-25T05:24:08.114Z,0.50
2023-01-25T05:26:54.239Z,0.60
2023-01-25T05:29:21.840Z,0.60
2023-01-25T05:32:08.029Z,0.60
2023-01-25T05:34:35.051Z,0.60
2023-01-25T05:37:02.460Z,0.50
2023-01-25T05:39:29.942Z,0.60
2023-01-25T05:41:57.497Z,0.50
2023-01-25T05:44:24.490Z,0.50
2023-01-25T05:46:52.116Z,0.50
2023-01-25T05:49:19.373Z,0.50
2023-01-25T05:51:46.465Z,0.50
2023-01-25T05:54:14.532Z,0.50
2023-01-25T05:56:44.659Z,0.50
2023-01-25T05:59:11.878Z,0.50
2023-01-25T06:01:40.908Z,0.50
2023-01-25T06:04:08.496Z,0.50
2023-01-25T06:06:35.687Z,0.50
2023-01-25T06:09:06.912Z,0.50
2023-01-25T06:11:33.903Z,0.60
2023-01-25T06:14:00.980Z,0.50
2023-01-25T06:16:28.037Z,0.50
2023-01-25T06:19:04.627Z,0.50
2023-01-25T06:21:43.882Z,0.50
2023-01-25T06:24:10.988Z,0.50
2023-01-25T06:26:37.976Z,0.40
2023-01-25T06:29:05.693Z,0.40
2023-01-25T06:31:32.855Z,0.50
2023-01-25T06:34:04.261Z,0.50
2023-01-25T06:36:31.559Z,0.50
2023-01-25T06:38:58.541Z,0.50
2023-01-25T06:41:25.700Z,0.50
2023-01-25T06:43:52.837Z,0.50
2023-01-25T06:46:20.230Z,0.50
2023-01-25T06:48:47.480Z,0.40
2023-01-25T06:51:14.676Z,0.40
2023-01-25T06:53:42.371Z,0.40
2023-01-25T06:56:17.742Z,0.40
2023-01-25T06:58:44.906Z,0.50
2023-01-25T07:01:11.872Z,0.40
2023-01-25T07:03:38.876Z,0.50
2023-01-25T07:06:06.260Z,0.50
2023-01-25T07:08:33.495Z,0.40
2023-01-25T07:11:01.280Z,0.50
2023-01-25T07:13:28.688Z,0.50
2023-01-25T07:15:56.450Z,0.50
2023-01-25T07:18:23.698Z,0.50
2023-01-25T07:20:50.898Z,0.40
2023-01-25T07:23:18.173Z,0.40
2023-01-25T07:25:48.562Z,0.30
2023-01-25T07:28:15.937Z,0.30
2023-01-25T07:30:43.219Z,0.30
2023-01-25T07:33:10.558Z,0.30
2023-01-25T07:35:37.607Z,0.30
2023-01-25T07:38:04.663Z,0.30
2023-01-25T07:40:31.930Z,0.30
2023-01-25T07:42:59.394Z,0.30
2023-01-25T07:45:30.586Z,0.30
2023-01-25T07:47:58.434Z,0.30
2023-01-25T07:50:28.516Z,0.30
2023-01-25T07:52:55.704Z,0.30
2023-01-25T07:55:22.763Z,0.30
2023-01-25T07:57:49.801Z,0.30
2023-01-25T08:00:17.239Z,0.30
2023-01-25T08:02:44.355Z,0.20
2023-01-25T08:05:11.770Z,0.30
2023-01-25T08:07:38.899Z,0.30
2023-01-25T08:10:07.253Z,0.30
2023-01-25T08:12:34.657Z,0.30
2023-01-25T08:15:01.765Z,0.30
2023-01-25T08:17:32.710Z,0.40
2023-01-25T08:20:00.159Z,0.40
2023-01-25T08:22:27.450Z,0.40
2023-01-25T08:24:54.619Z,0.30
2023-01-25T08:27:21.858Z,0.30
2023-01-25T08:29:50.533Z,0.30
2023-01-25T08:32:17.531Z,0.30
2023-01-25T08:34:44.528Z,0.30
2023-01-25T08:37:12.045Z,0.30
2023-01-25T08:39:39.141Z,0.30
2023-01-25T08:42:06.638Z,0.30
2023-01-25T08:44:33.671Z,0.30
2023-01-25T08:47:00.652Z,0.30
2023-01-25T08:49:27.673Z,0.30
2023-01-25T08:51:54.713Z,0.30
2023-01-25T08:54:21.803Z,0.30
2023-01-25T08:56:48.787Z,0.30
2023-01-25T08:59:15.784Z,0.30
2023-01-25T09:01:42.799Z,0.30
2023-01-25T09:04:09.794Z,0.30
2023-01-25T09:06:36.909Z,0.30
2023-01-25T09:09:04.690Z,0.30
2023-01-25T09:11:32.979Z,0.30
2023-01-25T09:13:59.998Z,0.30
2023-01-25T09:16:30.590Z,0.30
2023-01-25T09:18:58.178Z,0.30
2023-01-25T09:21:25.242Z,0.30
2023-01-25T09:24:05.593Z,0.30
2023-01-25T09:26:34.004Z,0.30
2023-01-25T09:29:01.167Z,0.30
2023-01-25T09:31:29.261Z,0.30
2023-01-25T09:34:09.041Z,0.30
2023-01-25T09:36:36.175Z,0.30
2023-01-25T09:39:03.439Z,0.30
2023-01-25T09:41:46.848Z,0.30
2023-01-25T09:44:20.141Z,0.30
2023-01-25T09:46:50.113Z,0.30
2023-01-25T09:49:35.986Z,0.30
2023-01-25T09:52:06.155Z,0.30
2023-01-25T09:54:42.376Z,0.30
2023-01-25T09:57:17.759Z,0.30
2023-01-25T09:59:45.545Z,0.30
2023-01-25T10:02:28.010Z,0.30
2023-01-25T10:04:55.424Z,0.30
2023-01-25T10:07:25.113Z,0.40
2023-01-25T10:09:58.052Z,0.40
2023-01-25T10:12:25.271Z,0.40
2023-01-25T10:14:52.460Z,0.30
2023-01-25T10:17:32.073Z,0.30
2023-01-25T10:20:05.412Z,0.30
2023-01-25T10:22:36.784Z,0.30
2023-01-25T10:25:22.727Z,0.30
2023-01-25T10:28:05.597Z,0.30
2023-01-25T10:30:38.605Z,0.30
2023-01-25T10:33:10.491Z,0.30
2023-01-25T10:35:41.775Z,0.30
2023-01-25T10:38:30.468Z,0.30
2023-01-25T10:41:11.687Z,0.30
2023-01-25T10:43:38.698Z,0.30
2023-01-25T10:46:16.538Z,0.30
2023-01-25T10:48:43.570Z,0.30
2023-01-25T10:51:10.592Z,0.30
2023-01-25T10:53:39.375Z,0.30
2023-01-25T10:56:09.610Z,0.30
2023-01-25T10:58:40.655Z,0.30
2023-01-25T11:01:11.212Z,0.30
2023-01-25T11:03:41.915Z,0.30
2023-01-25T11:06:09.064Z,0.30
2023-01-25T11:08:37.116Z,0.30
2023-01-25T11:11:23.234Z,0.30
2023-01-25T11:13:50.265Z,0.30
2023-01-25T11:16:17.315Z,0.30
2023-01-25T11:18:51.330Z,0.30
2023-01-25T11:21:19.701Z,0.30
2023-01-25T11:24:00.034Z,0.30
2023-01-25T11:26:27.120Z,0.30
2023-01-25T11:29:12.816Z,0.30
2023-01-25T11:31:45.438Z,0.40
2023-01-25T11:34:13.634Z,0.40
2023-01-25T11:36:40.567Z,0.40
2023-01-25T11:39:07.522Z,0.30
2023-01-25T11:41:55.693Z,0.30
2023-01-25T11:44:26.963Z,0.30
2023-01-25T11:46:53.927Z,0.30
2023-01-25T11:49:39.789Z,0.30
2023-01-25T11:52:25.616Z,0.30
2023-01-25T11:55:11.538Z,0.30
2023-01-25T11:57:43.333Z,0.30
2023-01-25T12:00:25.922Z,0.30
2023-01-25T12:03:07.103Z,0.40
2023-01-25T12:05:49.479Z,0.40
2023-01-25T12:08:23.406Z,0.30
2023-01-25T12:10:53.393Z,0.30
2023-01-25T12:13:24.141Z,0.30
2023-01-25T12:15:51.125Z,0.30
2023-01-25T12:18:18.110Z,0.40
2023-01-25T12:20:53.577Z,0.40
2023-01-25T12:23:32.596Z,0.40
2023-01-25T12:26:04.333Z,0.40
2023-01-25T12:28:33.247Z,0.40
2023-01-25T12:31:02.858Z,0.40
2023-01-25T12:33:33.907Z,0.40
2023-01-25T12:36:03.273Z,0.30
2023-01-25T12:38:33.348Z,0.30
2023-01-25T12:41:02.583Z,0.30
2023-01-25T12:43:35.890Z,0.30
2023-01-25T12:46:10.571Z,0.40
2023-01-25T12:48:38.212Z,0.30
2023-01-25T12:51:05.234Z,0.40
2023-01-25T12:53:32.241Z,0.40
2023-01-25T12:55:59.243Z,0.40
2023-01-25T12:58:46.402Z,0.40
2023-01-25T13:01:20.361Z,0.40
2023-01-25T13:03:50.663Z,0.40
2023-01-25T13:06:17.633Z,0.40
2023-01-25T13:08:49.076Z,0.40
2023-01-25T13:11:31.554Z,0.40
2023-01-25T13:14:17.505Z,0.40
2023-01-25T13:17:01.430Z,0.40
2023-01-25T13:19:31.915Z,0.40
2023-01-25T13:21:59.323Z,0.40
2023-01-25T13:24:26.895Z,0.40
2023-01-25T13:26:54.051Z,0.40
2023-01-25T13:29:33.216Z,0.40
2023-01-25T13:32:00.315Z,0.30
2023-01-25T13:34:37.295Z,0.40
2023-01-25T13:37:26.540Z,0.40
2023-01-25T13:39:53.907Z,0.40
2023-01-25T13:42:25.313Z,0.40
2023-01-25T13:44:53.944Z,0.30
2023-01-25T13:47:22.317Z,0.30
2023-01-25T13:49:52.042Z,0.30
2023-01-25T13:52:20.621Z,0.40
2023-01-25T13:54:48.512Z,0.30
2023-01-25T13:57:20.306Z,0.30
2023-01-25T13:59:47.351Z,0.30
2023-01-25T14:02:21.176Z,0.30
2023-01-25T14:04:48.456Z,0.30
2023-01-25T14:07:16.263Z,0.30
2023-01-25T14:09:43.416Z,0.30
2023-01-25T14:12:11.017Z,0.30
2023-01-25T14:14:38.313Z,0.30
2023-01-25T14:19:38.795Z,0.30
2023-01-25T14:22:26.055Z,0.30
2023-01-25T14:25:09.554Z,0.30
2023-01-25T14:27:41.948Z,0.20
2023-01-25T14:30:15.771Z,0.20
2023-01-25T14:32:42.815Z,0.20
2023-01-25T14:35:35.986Z,0.20
2023-01-25T14:38:28.568Z,0.20
2023-01-25T14:40:57.111Z,0.20
2023-01-25T14:43:24.283Z,0.20
2023-01-25T14:45:51.323Z,0.20
2023-01-25T14:48:45.023Z,0.20
2023-01-25T14:51:12.060Z,0.20
2023-01-25T14:53:39.530Z,0.20
2023-01-25T14:56:11.330Z,0.20
2023-01-25T14:58:39.693Z,0.20
2023-01-25T15:01:09.623Z,0.20
2023-01-25T15:03:36.613Z,0.20
2023-01-25T15:06:03.669Z,0.20
2023-01-25T15:08:32.697Z,0.20
2023-01-25T15:11:18.384Z,0.10
2023-01-25T15:13:45.415Z,0.20
2023-01-25T15:16:13.055Z,0.10
2023-01-25T15:18:43.864Z,0.20
2023-01-25T15:21:31.316Z,0.20
2023-01-25T15:23:59.390Z,0.20
2023-01-25T15:26:27.078Z,0.20
2023-01-25T15:28:55.001Z,0.20
2023-01-25T15:31:23.850Z,0.20
2023-01-25T15:33:51.078Z,0.20
2023-01-25T15:36:18.525Z,0.20
2023-01-25T15:38:45.518Z,0.20
2023-01-25T15:41:13.629Z,0.20
2023-01-25T15:43:40.797Z,0.20
2023-01-25T15:46:11.523Z,0.20
2023-01-25T15:48:41.040Z,0.20
2023-01-25T15:51:08.010Z,0.20
2023-01-25T15:53:35.272Z,0.20
2023-01-25T15:56:22.596Z,0.20
2023-01-25T15:58:53.193Z,0.20
2023-01-25T16:01:20.671Z,0.20
2023-01-25T16:03:47.723Z,0.20
2023-01-25T16:06:14.651Z,0.20
2023-01-25T16:08:41.664Z,0.20
2023-01-25T16:11:08.633Z,0.20
2023-01-25T16:13:35.647Z,0.20
2023-01-25T16:16:02.648Z,0.20
2023-01-25T16:18:29.673Z,0.20
2023-01-25T16:20:56.646Z,0.20
2023-01-25T16:23:23.634Z,0.20
2023-01-25T16:25:50.679Z,0.20
2023-01-25T16:28:17.782Z,0.20
2023-01-25T16:30:45.092Z,0.20
2023-01-25T16:33:12.359Z,0.20
2023-01-25T16:35:39.358Z,0.10
2023-01-25T16:38:06.336Z,0.20
2023-01-25T16:40:36.588Z,0.20
2023-01-25T16:43:04.090Z,0.20
2023-01-25T16:45:31.429Z,0.20
2023-01-25T16:47:58.454Z,0.20
2023-01-25T16:50:25.474Z,0.20
2023-01-25T16:52:54.372Z,0.20
2023-01-25T16:55:21.358Z,0.20
2023-01-25T16:57:51.403Z,0.20
2023-01-25T17:00:18.540Z,0.20
2023-01-25T17:02:58.171Z,0.20
2023-01-25T17:05:28.879Z,0.20
2023-01-25T17:07:55.950Z,0.20
2023-01-25T17:10:23.393Z,0.20
2023-01-25T17:12:51.180Z,0.20
2023-01-25T17:15:20.120Z,0.20
2023-01-25T17:17:47.227Z,0.20
2023-01-25T17:20:14.376Z,0.20
2023-01-25T17:22:42.370Z,0.20
2023-01-25T17:25:09.372Z,0.10
2023-01-25T17:27:36.359Z,0.20
2023-01-25T17:30:03.480Z,0.20
2023-01-25T17:32:30.478Z,0.20
2023-01-25T17:34:59.016Z,0.20
2023-01-25T17:37:26.049Z,0.20
2023-01-25T17:39:53.599Z,0.20
2023-01-25T17:42:21.996Z,0.20
2023-01-25T17:44:49.043Z,0.20
2023-01-25T17:47:16.022Z,0.10
2023-01-25T17:49:43.183Z,0.10
2023-01-25T17:52:10.227Z,0.20
2023-01-25T17:54:37.325Z,0.20
2023-01-25T17:57:04.301Z,0.20
2023-01-25T17:59:31.275Z,0.20
2023-01-25T18:01:58.238Z,0.20
2023-01-25T18:04:25.389Z,0.20
2023-01-25T18:06:52.500Z,0.20
2023-01-25T18:09:19.602Z,0.20
2023-01-25T18:11:47.813Z,0.20
2023-01-25T18:14:16.646Z,0.20
2023-01-25T18:16:44.678Z,0.20
2023-01-25T18:19:11.899Z,0.20
2023-01-25T18:21:39.152Z,0.20
2023-01-25T18:24:14.017Z,0.20
2023-01-25T18:26:42.599Z,0.20
2023-01-25T18:29:09.574Z,0.20
2023-01-25T18:31:36.752Z,0.20
2023-01-25T18:34:04.272Z,0.20
2023-01-25T18:36:31.228Z,0.20
2023-01-25T18:38:59.828Z,0.20
2023-01-25T18:41:26.987Z,0.20
2023-01-25T18:43:54.116Z,0.20
2023-01-25T18:46:21.200Z,0.20
2023-01-25T18:48:48.360Z,0.20
2023-01-25T18:51:17.309Z,0.20
2023-01-25T18:53:44.431Z,0.20
2023-01-25T18:56:12.099Z,0.10
2023-01-25T18:58:39.182Z,0.10
2023-01-25T19:01:12.455Z,0.10
2023-01-25T19:03:39.572Z,0.10
2023-01-25T19:06:06.689Z,0.10
2023-01-25T19:08:35.503Z,0.10
2023-01-25T19:11:03.244Z,0.10
2023-01-25T19:13:32.328Z,0.10
2023-01-25T19:16:00.376Z,0.00
2023-01-25T19:18:34.495Z,0.00
2023-01-25T19:21:01.498Z,0.00
2023-01-25T19:23:35.102Z,-0.10
2023-01-25T19:26:02.120Z,-0.10
2023-01-25T19:28:29.652Z,-0.10
2023-01-25T19:30:56.671Z,0.00
2023-01-25T19:33:23.671Z,0.00
2023-01-25T19:35:57.668Z,-0.10
2023-01-25T19:38:24.658Z,-0.10
2023-01-25T19:40:51.620Z,-0.10
2023-01-25T19:43:18.645Z,-0.10
2023-01-25T19:45:45.624Z,-0.10
2023-01-25T19:48:12.669Z,-0.10
2023-01-25T19:50:39.655Z,-0.10
2023-01-25T19:53:06.980Z,-0.10
2023-01-25T19:55:34.028Z,-0.10
2023-01-25T19:58:00.998Z,-0.10
2023-01-25T20:00:28.019Z,-0.10
2023-01-25T20:03:01.527Z,-0.10
2023-01-25T20:05:31.292Z,-0.10
2023-01-25T20:07:58.278Z,-0.10
2023-01-25T20:10:25.245Z,-0.10
2023-01-25T20:12:52.258Z,-0.10
2023-01-25T20:15:19.217Z,-0.10
2023-01-25T20:17:46.215Z,-0.10
2023-01-25T20:20:13.243Z,-0.10
2023-01-25T20:22:40.249Z,-0.10
2023-01-25T20:25:08.111Z,0.00
2023-01-25T20:27:35.197Z,-0.10
2023-01-25T20:30:02.372Z,-0.10
2023-01-25T20:32:33.181Z,-0.10
2023-01-25T20:35:03.289Z,-0.10
2023-01-25T20:37:30.293Z,-0.10
2023-01-25T20:39:57.268Z,-0.10
2023-01-25T20:42:24.259Z,-0.10
2023-01-25T20:44:51.222Z,-0.10
2023-01-25T20:47:18.224Z,-0.20
2023-01-25T20:49:45.278Z,-0.10
2023-01-25T20:52:13.745Z,-0.10
2023-01-25T20:54:43.822Z,-0.10
2023-01-25T20:57:10.842Z,-0.10
2023-01-25T20:59:37.835Z,-0.10
2023-01-25T21:02:04.865Z,-0.10
2023-01-25T21:04:31.898Z,-0.10
2023-01-25T21:06:58.873Z,-0.10
2023-01-25T21:09:28.168Z,-0.10
2023-01-25T21:11:55.239Z,-0.10
2023-01-25T21:14:22.226Z,-0.10
2023-01-25T21:16:49.197Z,-0.20
2023-01-25T21:19:16.172Z,-0.20
2023-01-25T21:21:43.227Z,-0.20
2023-01-25T21:24:11.732Z,-0.20
2023-01-25T21:26:38.804Z,-0.20
2023-01-25T21:29:05.948Z,-0.20
2023-01-25T21:31:33.739Z,-0.10
2023-01-25T21:34:00.842Z,-0.20
2023-01-25T21:36:27.869Z,-0.20
2023-01-25T21:38:54.912Z,-0.20
2023-01-25T21:41:24.568Z,-0.20
2023-01-25T21:44:10.410Z,-0.20
2023-01-25T21:46:37.417Z,-0.20
2023-01-25T21:49:23.910Z,-0.20
2023-01-25T21:51:51.610Z,-0.20
2023-01-25T21:54:19.278Z,-0.20
2023-01-25T21:56:46.746Z,-0.10
2023-01-25T21:59:13.852Z,-0.20
2023-01-25T22:01:40.835Z,-0.10
2023-01-25T22:04:07.811Z,-0.10
2023-01-25T22:06:34.883Z,-0.10
2023-01-25T22:09:01.915Z,-0.10
2023-01-25T22:11:29.041Z,-0.10
2023-01-25T22:13:56.029Z,-0.10
2023-01-25T22:16:23.050Z,-0.10
2023-01-25T22:18:50.609Z,-0.10
2023-01-25T22:21:21.532Z,-0.10
2023-01-25T22:23:48.607Z,-0.20
2023-01-25T22:26:16.876Z,-0.20
2023-01-25T22:28:47.730Z,-0.20
2023-01-25T22:31:15.491Z,-0.10
2023-01-25T22:33:42.634Z,-0.10
2023-01-25T22:36:10.211Z,-0.10
2023-01-25T22:38:37.160Z,-0.20
2023-01-25T22:41:08.080Z,-0.10
2023-01-25T22:43:35.375Z,-0.20
2023-01-25T22:46:02.560Z,-0.20
2023-01-25T22:48:29.595Z,-0.20
2023-01-25T22:51:03.144Z,-0.20
2023-01-25T22:53:30.165Z,-0.30
2023-01-25T22:56:00.436Z,-0.30
2023-01-25T22:58:27.848Z,-0.30
2023-01-25T23:00:54.815Z,-0.20
2023-01-25T23:03:21.867Z,-0.20
2023-01-25T23:05:48.854Z,-0.30
2023-01-25T23:08:15.906Z,-0.30
2023-01-25T23:10:42.879Z,-0.20
2023-01-25T23:13:09.899Z,-0.20
2023-01-25T23:15:36.895Z,-0.30
2023-01-25T23:18:22.785Z,-0.30
2023-01-25T23:20:49.779Z,-0.30
2023-01-25T23:23:16.765Z,-0.30
2023-01-25T23:25:45.588Z,-0.40
2023-01-25T23:28:12.618Z,-0.30
2023-01-25T23:30:39.608Z,-0.40
2023-01-25T23:33:06.602Z,-0.40
2023-01-25T23:35:33.552Z,-0.40
2023-01-25T23:38:00.513Z,-0.40
2023-01-25T23:40:27.477Z,-0.50
2023-01-25T23:42:54.575Z,-0.50
2023-01-25T23:45:22.220Z,-0.50
2023-01-25T23:47:49.173Z,-0.40
2023-01-25T23:50:16.426Z,-0.40
2023-01-25T23:52:43.401Z,-0.50
2023-01-25T23:55:11.007Z,-0.40
2023-01-25T23:57:38.042Z,-0.40
